Time;durP1;ratioP1;P1;durP2;ratioP2;P2;SDS_P1;SDS_P2;PMS_P1;PMS_P2;Temp;Humidity;BMP_temperature;BMP_pressure;BME280_temperature;BME280_humidity;BME280_pressure;Samples;Min_cycle;Max_cycle;Signal;HPM_P1;HPM_P2
2022/02/08 00:01:08;;;;;;;;;7.00;7.00;;;;;;;;5057293;27;46451;-83
2022/02/08 00:03:33;;;;;;;;;8.00;6.00;;;;;;;;5055446;28;45211;-82
2022/02/08 00:06:14;;;;;;;;;8.25;6.00;;;;;;;;5057832;28;45373;-82
2022/02/08 00:08:40;;;;;;;;;10.00;7.00;;;;;;;;5057768;28;45540;-83
2022/02/08 00:11:05;;;;;;;;;8.75;6.00;;;;;;;;5057360;28;45419;-83
2022/02/08 00:13:30;;;;;;;;;7.25;6.50;;;;;;;;5057148;28;45421;-80
2022/02/08 00:15:56;;;;;;;;;8.25;8.00;;;;;;;;5056733;28;45477;-82
2022/02/08 00:18:21;;;;;;;;;6.25;5.00;;;;;;;;5058994;28;45351;-82
2022/02/08 00:20:46;;;;;;;;;7.50;5.50;;;;;;;;5057352;28;46186;-82
2022/02/08 00:23:11;;;;;;;;;8.75;6.50;;;;;;;;5056825;28;45462;-81
2022/02/08 00:25:36;;;;;;;;;10.00;8.50;;;;;;;;5057121;28;45270;-82
2022/02/08 00:28:02;;;;;;;;;5.00;4.50;;;;;;;;5058737;28;45420;-81
2022/02/08 00:30:27;;;;;;;;;10.25;5.00;;;;;;;;5058921;28;46232;-81
2022/02/08 00:32:53;;;;;;;;;10.00;7.50;;;;;;;;5059635;28;45316;-82
2022/02/08 00:35:18;;;;;;;;;9.50;5.00;;;;;;;;5057592;28;45402;-82
2022/02/08 00:37:44;;;;;;;;;10.25;6.75;;;;;;;;5057424;28;45471;-82
2022/02/08 00:40:09;;;;;;;;;6.00;6.00;;;;;;;;5057036;28;46469;-82
2022/02/08 00:42:35;;;;;;;;;8.75;7.00;;;;;;;;5055821;28;45315;-82
2022/02/08 00:45:19;;;;;;;;;4.75;4.25;;;;;;;;5058075;28;45276;-82
2022/02/08 00:47:52;;;;;;;;;5.00;5.00;;;;;;;;5068695;28;45494;-82
2022/02/08 00:50:18;;;;;;;;;6.50;5.00;;;;;;;;5064165;28;45549;-82
2022/02/08 00:52:43;;;;;;;;;10.25;6.00;;;;;;;;5065465;28;45234;-82
2022/02/08 00:55:11;;;;;;;;;9.00;5.50;;;;;;;;5069698;28;45201;-81
2022/02/08 00:57:36;;;;;;;;;8.50;7.25;;;;;;;;5050162;28;45574;-81
2022/02/08 01:00:03;;;;;;;;;7.50;7.00;;;;;;;;5068643;27;45420;-81
2022/02/08 01:02:28;;;;;;;;;9.00;6.00;;;;;;;;5068332;28;45383;-81
2022/02/08 01:04:57;;;;;;;;;11.00;5.50;;;;;;;;5065358;27;45390;-81
2022/02/08 01:07:23;;;;;;;;;8.00;5.75;;;;;;;;5051664;28;45210;-82
2022/02/08 01:09:54;;;;;;;;;6.75;6.75;;;;;;;;5064375;28;46318;-81
2022/02/08 01:12:20;;;;;;;;;4.50;4.50;;;;;;;;5062864;28;45345;-82
2022/02/08 01:14:48;;;;;;;;;6.50;4.50;;;;;;;;5069540;28;45402;-82
2022/02/08 01:17:14;;;;;;;;;8.00;6.50;;;;;;;;5074893;27;45438;-80
2022/02/08 01:19:44;;;;;;;;;6.00;6.00;;;;;;;;5067802;27;47062;-81
2022/02/08 01:22:09;;;;;;;;;7.50;5.50;;;;;;;;5066247;28;45393;-82
2022/02/08 01:24:35;;;;;;;;;6.50;6.50;;;;;;;;5063776;28;45490;-82
2022/02/08 01:27:08;;;;;;;;;6.50;5.50;;;;;;;;5069276;28;45333;-82
2022/02/08 01:40:14;;;;;;;;;6.75;6.00;;;;;;;;5064465;28;45526;-80
2022/02/08 01:42:53;;;;;;;;;7.25;6.00;;;;;;;;5064820;28;45253;-83
2022/02/08 01:48:00;;;;;;;;;7.25;7.00;;;;;;;;5061602;28;45216;-83
2022/02/08 01:50:26;;;;;;;;;5.75;5.75;;;;;;;;5057630;28;45444;-82
2022/02/08 01:52:51;;;;;;;;;7.50;6.25;;;;;;;;5057793;28;45212;-82
2022/02/08 01:55:16;;;;;;;;;8.50;5.50;;;;;;;;5058726;28;45402;-83
2022/02/08 01:57:44;;;;;;;;;6.50;5.00;;;;;;;;5057716;28;45332;-82
2022/02/08 02:00:10;;;;;;;;;8.50;6.25;;;;;;;;5061033;27;46515;-81
2022/02/08 02:02:35;;;;;;;;;5.00;5.00;;;;;;;;5059720;28;45407;-81
2022/02/08 02:05:01;;;;;;;;;6.75;4.25;;;;;;;;5057694;28;45443;-81
2022/02/08 02:07:26;;;;;;;;;5.00;4.00;;;;;;;;5059072;28;45244;-83
2022/02/08 02:09:51;;;;;;;;;7.00;6.00;;;;;;;;5058427;28;45213;-81
2022/02/08 02:12:17;;;;;;;;;6.25;4.50;;;;;;;;5061919;28;45265;-81
2022/02/08 02:14:42;;;;;;;;;7.25;5.25;;;;;;;;5062304;28;45209;-82
2022/02/08 02:17:09;;;;;;;;;8.50;6.25;;;;;;;;5057992;28;45369;-82
2022/02/08 02:19:35;;;;;;;;;10.00;5.00;;;;;;;;5057463;28;46234;-82
2022/02/08 02:22:02;;;;;;;;;7.75;5.25;;;;;;;;5057223;28;45332;-81
2022/02/08 02:24:27;;;;;;;;;7.00;6.00;;;;;;;;5038368;28;45493;-82
2022/02/08 02:26:56;;;;;;;;;6.25;4.75;;;;;;;;5057918;28;45565;-82
2022/02/08 02:29:22;;;;;;;;;6.00;4.50;;;;;;;;5060744;28;46265;-83
2022/02/08 02:31:47;;;;;;;;;6.00;6.00;;;;;;;;5062267;28;45393;-81
2022/02/08 02:34:14;;;;;;;;;7.00;5.75;;;;;;;;5061971;28;45292;-81
2022/02/08 02:36:40;;;;;;;;;5.25;5.25;;;;;;;;5059981;28;45407;-81
2022/02/08 02:39:06;;;;;;;;;5.50;5.50;;;;;;;;5059105;28;46183;-81
2022/02/08 02:41:41;;;;;;;;;5.75;5.00;;;;;;;;5061743;28;45217;-82
2022/02/08 02:44:08;;;;;;;;;8.00;3.00;;;;;;;;5062185;28;45399;-82
2022/02/08 02:46:34;;;;;;;;;7.00;4.00;;;;;;;;5065237;28;45567;-83
2022/02/08 02:48:59;;;;;;;;;2.00;1.50;;;;;;;;5063822;28;46057;-82
2022/02/08 02:51:25;;;;;;;;;5.75;5.75;;;;;;;;5062876;28;45473;-82
2022/02/08 02:53:50;;;;;;;;;9.50;4.50;;;;;;;;5045164;28;45474;-82
2022/02/08 02:56:16;;;;;;;;;10.25;4.00;;;;;;;;5067149;28;45260;-82
2022/02/08 02:58:41;;;;;;;;;4.50;4.00;;;;;;;;5060930;28;46232;-82
2022/02/08 03:01:27;;;;;;;;;8.50;5.25;;;;;;;;5058619;28;45406;-82
2022/02/08 03:19:58;;;;;;;;;4.00;3.00;;;;;;;;5015937;28;45618;-82
2022/02/08 03:22:23;;;;;;;;;10.00;7.25;;;;;;;;5015506;28;45376;-81
2022/02/08 03:24:49;;;;;;;;;7.75;7.00;;;;;;;;5015311;28;45400;-82
2022/02/08 03:27:15;;;;;;;;;7.25;5.00;;;;;;;;5016167;28;45425;-81
2022/02/08 03:29:40;;;;;;;;;6.75;5.50;;;;;;;;5017721;28;45640;-81
2022/02/08 03:32:06;;;;;;;;;7.25;6.75;;;;;;;;5015704;28;45675;-82
2022/02/08 03:34:31;;;;;;;;;8.00;5.00;;;;;;;;5016017;28;45408;-82
2022/02/08 03:36:56;;;;;;;;;7.00;6.75;;;;;;;;5014439;28;45425;-82
2022/02/08 03:39:33;;;;;;;;;5.25;5.00;;;;;;;;4997074;28;46216;-82
2022/02/08 03:42:07;;;;;;;;;8.75;6.25;;;;;;;;4998198;28;45452;-82
2022/02/08 03:44:33;;;;;;;;;7.25;5.75;;;;;;;;4998398;28;45293;-82
2022/02/08 03:47:04;;;;;;;;;2.00;2.00;;;;;;;;5002709;28;45394;-83
2022/02/08 03:49:30;;;;;;;;;12.00;6.00;;;;;;;;5003986;28;46187;-82
2022/02/08 03:51:59;;;;;;;;;6.25;5.25;;;;;;;;5037512;28;45305;-82
2022/02/08 03:54:24;;;;;;;;;4.25;4.00;;;;;;;;5041236;28;45367;-82
2022/02/08 03:56:49;;;;;;;;;7.25;6.00;;;;;;;;5041939;28;45387;-82
2022/02/08 03:59:15;;;;;;;;;6.50;6.50;;;;;;;;5041311;28;45458;-83
2022/02/08 04:06:54;;;;;;;;;7.50;7.50;;;;;;;;5033269;28;45403;-82
2022/02/08 04:09:19;;;;;;;;;3.00;2.50;;;;;;;;5039621;28;46582;-81
2022/02/08 04:12:01;;;;;;;;;6.50;5.00;;;;;;;;5040091;28;45363;-82
2022/02/08 04:14:47;;;;;;;;;6.50;6.50;;;;;;;;5040208;28;45490;-82
2022/02/08 04:17:36;;;;;;;;;7.50;5.50;;;;;;;;5040175;28;45320;-82
2022/02/08 04:36:25;;;;;;;;;5.25;5.25;;;;;;;;5039593;28;45550;-82
2022/02/08 04:41:41;;;;;;;;;9.50;7.75;;;;;;;;5056694;28;45719;-81
2022/02/08 04:46:50;;;;;;;;;6.25;6.00;;;;;;;;5059319;28;45408;-81
2022/02/08 04:49:15;;;;;;;;;7.25;7.25;;;;;;;;5055522;28;45328;-81
2022/02/08 04:51:49;;;;;;;;;7.25;6.50;;;;;;;;5055882;28;46369;-81
2022/02/08 05:34:16;;;;;;;;;9.75;6.00;;;;;;;;5055787;28;45888;-82
2022/02/08 05:42:43;;;;;;;;;7.75;6.75;;;;;;;;5055700;28;45671;-83
2022/02/08 05:47:41;;;;;;;;;7.50;7.50;;;;;;;;5056563;27;45263;-83
2022/02/08 05:50:11;;;;;;;;;6.75;6.00;;;;;;;;5056679;28;45490;-82
2022/02/08 05:52:50;;;;;;;;;8.50;8.50;;;;;;;;5055294;28;45456;-81
2022/02/08 05:55:15;;;;;;;;;7.50;5.75;;;;;;;;5055868;28;46985;-82
2022/02/08 05:57:41;;;;;;;;;7.75;6.50;;;;;;;;5054483;28;45450;-83
2022/02/08 06:00:07;;;;;;;;;9.75;6.25;;;;;;;;5056698;28;45588;-83
2022/02/08 06:02:32;;;;;;;;;7.00;6.00;;;;;;;;5058689;28;46216;-83
2022/02/08 06:04:57;;;;;;;;;6.25;4.75;;;;;;;;5059901;28;46405;-82
2022/02/08 06:07:24;;;;;;;;;7.00;6.50;;;;;;;;5062062;28;45368;-83
2022/02/08 06:09:53;;;;;;;;;8.00;6.75;;;;;;;;5061686;28;45406;-82
2022/02/08 06:12:18;;;;;;;;;7.00;6.00;;;;;;;;5059542;28;45463;-82
2022/02/08 06:14:44;;;;;;;;;6.00;6.00;;;;;;;;5059195;28;45399;-82
2022/02/08 06:17:09;;;;;;;;;7.25;5.00;;;;;;;;5071294;28;45477;-82
2022/02/08 06:19:35;;;;;;;;;9.00;7.75;;;;;;;;5073858;27;45351;-82
2022/02/08 06:22:00;;;;;;;;;6.50;4.75;;;;;;;;5076244;28;44871;-80
2022/02/08 06:24:25;;;;;;;;;5.75;5.75;;;;;;;;5077929;28;45266;-82
2022/02/08 06:26:50;;;;;;;;;6.00;5.50;;;;;;;;5072962;28;45297;-80
2022/02/08 06:29:21;;;;;;;;;7.50;6.00;;;;;;;;5059164;28;45399;-82
2022/02/08 06:31:46;;;;;;;;;6.00;6.00;;;;;;;;5059195;28;45380;-74
2022/02/08 06:34:17;;;;;;;;;5.00;5.00;;;;;;;;5058496;28;46063;-74
2022/02/08 06:36:42;;;;;;;;;6.75;5.75;;;;;;;;5056570;28;45407;-73
2022/02/08 06:39:08;;;;;;;;;6.00;4.00;;;;;;;;5056862;27;45605;-74
2022/02/08 06:41:33;;;;;;;;;3.00;3.00;;;;;;;;5039503;28;45575;-74
2022/02/08 06:44:00;;;;;;;;;5.25;5.25;;;;;;;;5039094;28;48585;-74
2022/02/08 06:46:26;;;;;;;;;8.50;7.25;;;;;;;;5057540;28;45511;-74
2022/02/08 06:48:52;;;;;;;;;6.75;6.00;;;;;;;;5057310;28;45455;-78
2022/02/08 06:51:17;;;;;;;;;5.75;4.00;;;;;;;;5057816;28;45222;-76
2022/02/08 06:53:42;;;;;;;;;5.00;4.00;;;;;;;;5057427;28;45965;-80
2022/02/08 06:56:08;;;;;;;;;3.75;3.75;;;;;;;;5057659;28;45529;-81
2022/02/08 06:58:42;;;;;;;;;4.00;4.00;;;;;;;;5059763;28;45390;-76
2022/02/08 07:01:07;;;;;;;;;5.00;5.00;;;;;;;;5057205;28;45347;-74
2022/02/08 07:03:32;;;;;;;;;7.75;6.00;;;;;;;;5056364;28;46020;-75
2022/02/08 07:05:58;;;;;;;;;5.00;5.00;;;;;;;;5057575;28;45334;-76
2022/02/08 07:08:24;;;;;;;;;5.75;5.75;;;;;;;;5056514;28;45395;-75
2022/02/08 07:10:49;;;;;;;;;8.25;7.00;;;;;;;;5056715;28;45468;-75
2022/02/08 07:13:15;;;;;;;;;8.00;7.00;;;;;;;;5056285;28;47798;-76
2022/02/08 07:15:40;;;;;;;;;7.00;7.00;;;;;;;;5055616;28;45457;-76
2022/02/08 07:18:06;;;;;;;;;8.75;7.75;;;;;;;;5056836;28;45666;-77
2022/02/08 07:20:34;;;;;;;;;7.50;7.50;;;;;;;;5042615;28;45370;-74
2022/02/08 07:22:59;;;;;;;;;6.00;6.00;;;;;;;;5056505;28;45533;-74
2022/02/08 07:25:25;;;;;;;;;9.25;9.00;;;;;;;;5056090;28;45356;-76
2022/02/08 07:27:50;;;;;;;;;7.75;6.00;;;;;;;;5056068;28;45447;-75
2022/02/08 07:30:15;;;;;;;;;6.75;6.00;;;;;;;;5056358;28;45320;-75
2022/02/08 07:32:41;;;;;;;;;9.25;6.00;;;;;;;;5037630;28;46740;-74
2022/02/08 07:37:45;;;;;;;;;8.50;7.00;;;;;;;;5056219;27;45371;-73
2022/02/08 07:40:16;;;;;;;;;7.00;7.00;;;;;;;;5056554;28;45511;-76
2022/02/08 07:42:41;;;;;;;;;5.75;5.00;;;;;;;;5055690;28;46219;-76
2022/02/08 07:45:06;;;;;;;;;7.75;7.75;;;;;;;;5037865;28;45281;-76
2022/02/08 07:47:31;;;;;;;;;8.75;7.00;;;;;;;;5056622;28;45398;-84
2022/02/08 07:49:57;;;;;;;;;9.00;8.00;;;;;;;;5059120;28;45294;-83
2022/02/08 07:52:22;;;;;;;;;7.50;5.75;;;;;;;;5057786;28;45510;-83
2022/02/08 07:54:47;;;;;;;;;9.25;8.00;;;;;;;;5056293;28;45703;-82
2022/02/08 07:57:12;;;;;;;;;11.25;11.25;;;;;;;;5057342;27;45266;-83
2022/02/08 07:59:38;;;;;;;;;15.25;14.00;;;;;;;;5055455;28;45508;-84
2022/02/08 08:02:03;;;;;;;;;10.75;8.25;;;;;;;;5054956;28;45979;-84
2022/02/08 08:04:28;;;;;;;;;6.75;5.75;;;;;;;;5060662;28;45655;-80
2022/02/08 08:06:53;;;;;;;;;12.00;9.00;;;;;;;;5054552;28;45412;-80
2022/02/08 08:09:19;;;;;;;;;11.25;7.00;;;;;;;;5054518;28;45450;-77
2022/02/08 08:11:46;;;;;;;;;7.00;7.00;;;;;;;;5053647;28;46464;-80
2022/02/08 08:14:13;;;;;;;;;8.50;8.25;;;;;;;;5053466;28;45551;-78
2022/02/08 08:21:39;;;;;;;;;6.75;6.75;;;;;;;;5054375;28;45454;-80
2022/02/08 08:24:05;;;;;;;;;6.50;4.25;;;;;;;;5053537;28;45404;-80
2022/02/08 08:26:31;;;;;;;;;10.75;7.75;;;;;;;;5054147;28;45368;-79
2022/02/08 08:28:56;;;;;;;;;9.50;9.00;;;;;;;;5053062;28;45464;-79
2022/02/08 08:31:21;;;;;;;;;13.75;9.25;;;;;;;;5053677;28;46263;-81
2022/02/08 08:33:47;;;;;;;;;8.75;6.00;;;;;;;;5054715;28;45293;-79
2022/02/08 08:36:13;;;;;;;;;12.50;11.00;;;;;;;;5035752;28;45541;-80
2022/02/08 08:38:38;;;;;;;;;7.00;7.00;;;;;;;;5053383;28;45552;-78
2022/02/08 08:41:18;;;;;;;;;8.00;8.00;;;;;;;;5030517;28;47225;-79
2022/02/08 08:51:47;;;;;;;;;7.50;7.50;;;;;;;;5062249;28;45470;-79
2022/02/08 08:54:12;;;;;;;;;11.00;7.00;;;;;;;;5052904;28;45368;-80
2022/02/08 08:56:39;;;;;;;;;8.00;7.00;;;;;;;;5052686;28;45359;-78
2022/02/08 08:59:05;;;;;;;;;8.50;8.00;;;;;;;;5053770;28;48023;-79
2022/02/08 09:01:30;;;;;;;;;11.50;9.75;;;;;;;;5053719;28;46572;-80
2022/02/08 09:03:55;;;;;;;;;10.25;10.00;;;;;;;;5053911;28;45257;-79
2022/02/08 09:06:21;;;;;;;;;8.75;8.75;;;;;;;;5054159;28;45181;-77
2022/02/08 09:08:46;;;;;;;;;7.75;7.75;;;;;;;;5053499;28;45564;-80
2022/02/08 09:11:22;;;;;;;;;9.50;8.50;;;;;;;;5053079;28;47121;-80
2022/02/08 09:14:03;;;;;;;;;9.50;8.25;;;;;;;;5053289;28;45430;-81
2022/02/08 09:16:42;;;;;;;;;8.00;8.00;;;;;;;;5038790;28;45529;-80
2022/02/08 09:20:11;;;;;;;;;10.50;10.50;;;;;;;;5052977;28;45249;-78
2022/02/08 09:30:12;;;;;;;;;10.00;9.75;;;;;;;;5053286;28;45216;-80
2022/02/08 09:32:45;;;;;;;;;9.25;9.00;;;;;;;;5052515;28;46175;-79
2022/02/08 09:35:11;;;;;;;;;10.25;9.75;;;;;;;;5051915;28;45538;-78
2022/02/08 09:37:37;;;;;;;;;14.50;12.25;;;;;;;;5052669;28;45387;-77
2022/02/08 09:40:03;;;;;;;;;11.75;10.00;;;;;;;;5051711;28;45289;-77
2022/02/08 09:42:29;;;;;;;;;9.50;9.25;;;;;;;;5052190;28;45413;-78
2022/02/08 09:44:54;;;;;;;;;10.50;10.50;;;;;;;;5051495;28;45347;-79
2022/02/08 09:47:30;;;;;;;;;10.75;10.00;;;;;;;;5051599;28;45392;-78
2022/02/08 09:49:57;;;;;;;;;7.00;6.25;;;;;;;;5052387;28;45438;-79
2022/02/08 09:52:23;;;;;;;;;9.25;8.00;;;;;;;;5052201;28;46109;-79
2022/02/08 09:54:49;;;;;;;;;12.00;10.75;;;;;;;;5052466;28;45362;-77
2022/02/08 09:57:14;;;;;;;;;10.50;6.50;;;;;;;;5052389;28;45418;-78
2022/02/08 09:59:41;;;;;;;;;9.00;7.50;;;;;;;;5052007;28;45408;-77
2022/02/08 10:02:07;;;;;;;;;11.25;10.25;;;;;;;;5052454;28;46081;-78
2022/02/08 10:04:32;;;;;;;;;9.75;9.75;;;;;;;;5050454;28;45517;-78
2022/02/08 10:07:09;;;;;;;;;8.50;6.75;;;;;;;;5052216;28;45289;-77
2022/02/08 10:09:34;;;;;;;;;11.25;10.25;;;;;;;;5051176;28;45402;-79
2022/02/08 10:11:59;;;;;;;;;9.50;8.25;;;;;;;;5052282;28;45537;-78
2022/02/08 10:18:51;;;;;;;;;8.50;8.00;;;;;;;;5052003;28;45483;-79
2022/02/08 10:22:57;;;;;;;;;10.50;9.25;;;;;;;;5051697;28;45579;-78
2022/02/08 10:28:15;;;;;;;;;7.75;6.50;;;;;;;;5052130;28;45382;-77
2022/02/08 10:31:08;;;;;;;;;9.25;7.75;;;;;;;;5052209;28;45312;-77
2022/02/08 10:39:02;;;;;;;;;11.50;10.25;;;;;;;;5051440;28;45240;-79
2022/02/08 10:41:27;;;;;;;;;8.25;8.25;;;;;;;;5051829;28;45411;-78
2022/02/08 10:44:10;;;;;;;;;12.75;11.00;;;;;;;;5051285;28;45414;-77
2022/02/08 10:46:36;;;;;;;;;11.00;11.00;;;;;;;;5038149;28;45310;-77
2022/02/08 10:49:06;;;;;;;;;5.75;5.75;;;;;;;;5055461;28;45214;-77
2022/02/08 10:51:36;;;;;;;;;13.25;11.25;;;;;;;;5053245;28;45325;-78
2022/02/08 10:54:07;;;;;;;;;13.75;11.25;;;;;;;;5054879;28;46153;-77
2022/02/08 10:56:35;;;;;;;;;6.00;5.00;;;;;;;;5054571;28;45379;-77
2022/02/08 10:59:15;;;;;;;;;9.50;9.00;;;;;;;;5055162;28;45308;-77
2022/02/08 11:01:49;;;;;;;;;12.00;10.75;;;;;;;;5054736;28;45416;-78
2022/02/08 11:04:22;;;;;;;;;11.00;9.25;;;;;;;;5055105;28;45682;-78
2022/02/08 11:06:55;;;;;;;;;8.50;8.50;;;;;;;;5051399;28;45351;-79
2022/02/08 11:19:38;;;;;;;;;23.50;22.75;;;;;;;;5039176;28;45206;-76
2022/02/08 11:22:22;;;;;;;;;12.25;10.00;;;;;;;;5054157;28;45467;-78
2022/02/08 11:24:51;;;;;;;;;9.00;6.00;;;;;;;;5051048;28;45445;-77
2022/02/08 11:27:19;;;;;;;;;14.00;9.75;;;;;;;;5054491;28;45499;-78
2022/02/08 11:30:04;;;;;;;;;11.50;9.50;;;;;;;;5056542;28;45296;-78
2022/02/08 11:32:50;;;;;;;;;8.75;8.75;;;;;;;;5055387;28;45311;-80
2022/02/08 11:44:12;;;;;;;;;9.75;9.50;;;;;;;;5055133;28;45507;-78
2022/02/08 11:54:58;;;;;;;;;12.75;9.75;;;;;;;;5054510;28;45320;-75
2022/02/08 12:00:39;;;;;;;;;6.25;6.00;;;;;;;;5053413;28;45494;-78
2022/02/08 12:02:46;;;;;;;;;10.50;10.50;;;;;;;;5043248;28;45469;-76
2022/02/08 12:08:04;;;;;;;;;7.00;7.00;;;;;;;;5054274;28;45370;-76
2022/02/08 12:10:44;;;;;;;;;12.00;12.00;;;;;;;;5038909;28;45431;-76
2022/02/08 12:13:56;;;;;;;;;14.00;13.00;;;;;;;;5054168;28;45445;-77
2022/02/08 12:56:34;;;;;;;;;5.50;5.25;;;;;;;;5052893;28;45528;-77
2022/02/08 12:59:14;;;;;;;;;2.00;2.00;;;;;;;;5052661;28;45473;-78
2022/02/08 13:18:59;;;;;;;;;5.75;4.50;;;;;;;;5053131;28;45387;-77
2022/02/08 14:07:49;;;;;;;;;6.50;5.25;;;;;;;;5039710;28;46202;-76
2022/02/08 14:18:11;;;;;;;;;7.00;6.50;;;;;;;;5053147;28;45874;-76
2022/02/08 14:26:00;;;;;;;;;5.75;4.50;;;;;;;;5057661;28;45398;-76
2022/02/08 14:34:28;;;;;;;;;5.00;5.00;;;;;;;;5057401;28;45418;-76
2022/02/08 15:06:45;;;;;;;;;11.75;10.25;;;;;;;;4978876;28;45420;-78
2022/02/08 15:09:11;;;;;;;;;9.00;8.00;;;;;;;;4978074;28;45490;-78
2022/02/08 15:11:47;;;;;;;;;5.25;5.00;;;;;;;;4977991;28;45642;-78
2022/02/08 15:14:13;;;;;;;;;8.75;8.75;;;;;;;;4977752;28;45465;-78
2022/02/08 15:16:38;;;;;;;;;8.75;7.75;;;;;;;;4976009;28;45332;-75
2022/02/08 15:19:04;;;;;;;;;6.50;4.75;;;;;;;;4976280;28;45355;-75
2022/02/08 15:21:32;;;;;;;;;7.75;7.00;;;;;;;;4978655;28;46304;-75
2022/02/08 15:23:58;;;;;;;;;6.75;6.00;;;;;;;;4978102;28;45572;-75
2022/02/08 15:26:23;;;;;;;;;7.00;6.00;;;;;;;;4978067;28;45513;-75
2022/02/08 15:28:49;;;;;;;;;7.50;7.00;;;;;;;;4977151;28;45426;-75
2022/02/08 15:31:17;;;;;;;;;9.00;9.00;;;;;;;;4974269;28;46248;-75
2022/02/08 15:33:42;;;;;;;;;8.75;8.75;;;;;;;;4977852;28;45530;-78
2022/02/08 15:36:07;;;;;;;;;7.00;7.00;;;;;;;;5033294;28;45543;-75
2022/02/08 15:38:36;;;;;;;;;8.00;6.00;;;;;;;;5056849;27;45527;-75
2022/02/08 15:41:02;;;;;;;;;8.75;8.75;;;;;;;;5056903;28;47037;-75
2022/02/08 15:43:27;;;;;;;;;9.25;6.25;;;;;;;;5037992;28;45550;-75
2022/02/08 15:45:58;;;;;;;;;10.75;8.25;;;;;;;;5055759;28;45465;-77
2022/02/08 15:48:24;;;;;;;;;8.25;7.25;;;;;;;;5056974;28;45389;-76
2022/02/08 15:50:58;;;;;;;;;4.00;2.25;;;;;;;;5055914;28;45565;-76
2022/02/08 16:00:08;;;;;;;;;7.50;7.00;;;;;;;;5024559;28;45343;-73
2022/02/08 16:05:06;;;;;;;;;8.50;8.50;;;;;;;;5055773;28;45383;-76
2022/02/08 16:07:01;;;;;;;;;9.25;8.50;;;;;;;;5052696;28;45330;-77
2022/02/08 16:12:07;;;;;;;;;9.25;9.00;;;;;;;;5056064;28;45889;-78
2022/02/08 16:14:44;;;;;;;;;9.25;9.25;;;;;;;;5037888;28;45838;-78
2022/02/08 16:28:15;;;;;;;;;16.50;16.50;;;;;;;;4993648;28;45541;-76
2022/02/08 16:49:38;;;;;;;;;9.50;9.50;;;;;;;;5013378;28;45346;-77
2022/02/08 16:54:47;;;;;;;;;20.75;18.75;;;;;;;;5012366;28;45417;-75
2022/02/08 16:57:32;;;;;;;;;12.75;10.75;;;;;;;;5042230;28;45404;-75
2022/02/08 16:59:59;;;;;;;;;12.75;11.75;;;;;;;;5055869;28;45260;-76
2022/02/08 17:02:27;;;;;;;;;13.00;13.00;;;;;;;;5055510;28;45283;-76
2022/02/08 17:04:52;;;;;;;;;11.25;11.25;;;;;;;;5055342;28;45192;-77
2022/02/08 17:07:17;;;;;;;;;17.50;15.75;;;;;;;;5055294;28;45482;-75
2022/02/08 17:14:54;;;;;;;;;13.50;11.00;;;;;;;;5055097;28;45615;-76
2022/02/08 17:47:13;;;;;;;;;18.00;14.75;;;;;;;;5054853;28;45877;-76
2022/02/08 17:49:38;;;;;;;;;15.50;14.50;;;;;;;;5041171;28;45416;-76
2022/02/08 17:52:04;;;;;;;;;15.25;13.75;;;;;;;;5054335;28;45378;-73
2022/02/08 17:54:29;;;;;;;;;15.25;15.25;;;;;;;;5053594;28;45539;-75
2022/02/08 17:56:57;;;;;;;;;19.75;15.50;;;;;;;;5055092;28;45581;-76
2022/02/08 17:59:24;;;;;;;;;21.50;18.75;;;;;;;;5063201;27;45631;-76
2022/02/08 18:01:50;;;;;;;;;22.00;16.75;;;;;;;;5056578;28;45463;-77
2022/02/08 18:04:15;;;;;;;;;16.50;14.25;;;;;;;;5056672;28;45640;-77
2022/02/08 18:06:40;;;;;;;;;16.00;15.00;;;;;;;;5057448;28;47465;-77
2022/02/08 18:09:06;;;;;;;;;18.25;14.25;;;;;;;;5055563;28;45597;-75
2022/02/08 18:11:37;;;;;;;;;16.00;14.75;;;;;;;;5057194;28;45475;-76
2022/02/08 18:14:02;;;;;;;;;16.50;13.25;;;;;;;;5067670;28;45477;-77
2022/02/08 18:16:33;;;;;;;;;19.00;14.00;;;;;;;;5057844;28;45408;-77
2022/02/08 18:19:02;;;;;;;;;18.50;16.00;;;;;;;;5057098;28;45308;-75
2022/02/08 18:21:33;;;;;;;;;19.50;18.75;;;;;;;;5056499;28;45661;-75
2022/02/08 18:51:27;;;;;;;;;10.50;8.75;;;;;;;;5018165;28;45443;-77
2022/02/08 18:55:59;;;;;;;;;11.50;11.50;;;;;;;;5015896;28;45498;-76
2022/02/08 19:11:54;;;;;;;;;14.25;12.50;;;;;;;;5016085;28;45504;-75
2022/02/08 19:17:13;;;;;;;;;10.00;10.00;;;;;;;;5016125;28;45384;-78
2022/02/08 19:22:15;;;;;;;;;14.50;12.25;;;;;;;;5033308;28;45604;-77
2022/02/08 19:24:41;;;;;;;;;15.50;14.25;;;;;;;;5057272;28;45582;-76
2022/02/08 19:27:06;;;;;;;;;16.75;15.25;;;;;;;;5057999;28;45426;-78
2022/02/08 19:29:35;;;;;;;;;11.75;11.75;;;;;;;;5057277;28;47558;-76
2022/02/08 19:32:01;;;;;;;;;16.75;13.00;;;;;;;;5063570;28;45411;-76
2022/02/08 19:34:26;;;;;;;;;17.75;16.25;;;;;;;;5058222;28;45502;-77
2022/02/08 19:36:55;;;;;;;;;14.00;14.00;;;;;;;;5057527;28;45396;-76
2022/02/08 19:39:21;;;;;;;;;11.00;9.50;;;;;;;;5057200;28;46140;-76
2022/02/08 19:41:46;;;;;;;;;11.50;11.50;;;;;;;;5057754;28;45324;-79
2022/02/08 19:44:11;;;;;;;;;11.50;10.75;;;;;;;;5056495;28;45557;-77
2022/02/08 19:46:37;;;;;;;;;11.00;10.25;;;;;;;;5055720;28;45586;-76
2022/02/08 19:49:03;;;;;;;;;9.50;9.50;;;;;;;;5055199;28;46618;-77
2022/02/08 19:51:29;;;;;;;;;12.75;11.50;;;;;;;;5056037;28;45419;-76
2022/02/08 19:53:56;;;;;;;;;12.75;10.25;;;;;;;;5055574;28;45467;-77
2022/02/08 19:56:31;;;;;;;;;10.25;9.00;;;;;;;;5055581;28;45495;-77
2022/02/08 19:58:57;;;;;;;;;8.50;7.25;;;;;;;;5055214;28;45744;-74
2022/02/08 20:01:28;;;;;;;;;6.50;5.50;;;;;;;;5058825;28;45642;-77
2022/02/08 20:03:59;;;;;;;;;8.25;6.75;;;;;;;;5056586;28;45600;-75
2022/02/08 20:06:25;;;;;;;;;5.25;5.00;;;;;;;;5060676;28;45580;-77
2022/02/08 20:08:51;;;;;;;;;9.50;8.25;;;;;;;;5057677;28;45901;-77
2022/02/08 20:11:16;;;;;;;;;6.00;5.25;;;;;;;;5055696;28;45233;-76
2022/02/08 20:13:50;;;;;;;;;10.00;8.75;;;;;;;;5055748;28;45419;-77
2022/02/08 20:16:17;;;;;;;;;11.25;8.50;;;;;;;;5055799;28;45526;-76
2022/02/08 20:18:45;;;;;;;;;10.50;9.00;;;;;;;;5055787;28;45715;-77
2022/02/08 20:21:10;;;;;;;;;9.50;9.50;;;;;;;;5055300;28;45298;-76
2022/02/08 20:23:36;;;;;;;;;7.00;7.00;;;;;;;;5055275;28;45443;-74
2022/02/08 20:26:03;;;;;;;;;11.50;8.75;;;;;;;;5056148;28;45327;-74
2022/02/08 20:28:48;;;;;;;;;8.00;8.00;;;;;;;;5055295;28;47143;-74
2022/02/08 20:31:15;;;;;;;;;9.00;9.00;;;;;;;;5055082;28;45471;-76
2022/02/08 20:33:40;;;;;;;;;9.00;9.00;;;;;;;;5055035;28;45495;-76
2022/02/08 20:36:06;;;;;;;;;5.50;5.50;;;;;;;;5054994;28;45433;-75
2022/02/08 20:38:31;;;;;;;;;8.25;8.25;;;;;;;;5055124;28;46117;-74
2022/02/08 20:40:56;;;;;;;;;9.25;7.50;;;;;;;;5055212;28;45224;-76
2022/02/08 20:43:22;;;;;;;;;8.00;7.00;;;;;;;;5055147;28;45275;-76
2022/02/08 20:45:48;;;;;;;;;12.75;11.25;;;;;;;;5056113;28;45248;-77
2022/02/08 20:48:13;;;;;;;;;9.50;8.50;;;;;;;;5054875;28;47166;-76
2022/02/08 20:50:40;;;;;;;;;10.25;8.50;;;;;;;;5054889;28;45316;-77
2022/02/08 20:53:25;;;;;;;;;10.00;9.50;;;;;;;;5054886;28;45460;-77
2022/02/08 20:56:06;;;;;;;;;10.00;10.00;;;;;;;;5054867;28;45509;-76
2022/02/08 20:58:50;;;;;;;;;7.50;6.75;;;;;;;;5039726;28;45649;-76
2022/02/08 21:01:15;;;;;;;;;10.00;9.25;;;;;;;;5054537;28;45520;-75
2022/02/08 21:03:52;;;;;;;;;12.25;11.00;;;;;;;;5055806;28;45279;-76
2022/02/08 21:06:21;;;;;;;;;10.75;10.75;;;;;;;;5054384;28;45613;-75
2022/02/08 21:08:46;;;;;;;;;10.00;10.00;;;;;;;;5054397;28;46679;-75
2022/02/08 21:11:12;;;;;;;;;11.50;11.50;;;;;;;;5054090;28;45291;-76
2022/02/08 21:13:44;;;;;;;;;12.25;11.25;;;;;;;;5053764;28;45376;-74
2022/02/08 21:16:10;;;;;;;;;15.25;12.75;;;;;;;;5053886;28;45389;-76
2022/02/08 21:18:36;;;;;;;;;13.75;12.75;;;;;;;;5054974;28;47266;-77
2022/02/08 21:21:01;;;;;;;;;11.00;11.00;;;;;;;;5054335;28;45527;-76
2022/02/08 21:23:26;;;;;;;;;15.00;12.00;;;;;;;;5054151;28;45494;-75
2022/02/08 21:25:52;;;;;;;;;16.25;15.25;;;;;;;;5054537;28;45314;-79
2022/02/08 21:28:29;;;;;;;;;16.25;13.50;;;;;;;;5055196;28;45499;-81
2022/02/08 21:49:48;;;;;;;;;21.50;17.75;;;;;;;;4933846;28;45568;-76
2022/02/08 21:52:28;;;;;;;;;25.00;23.00;;;;;;;;4937391;28;45448;-79
2022/02/08 21:54:53;;;;;;;;;22.25;19.25;;;;;;;;4936936;28;45524;-78
2022/02/08 21:57:21;;;;;;;;;23.50;21.25;;;;;;;;4935526;28;45698;-76
2022/02/08 21:59:47;;;;;;;;;29.00;19.75;;;;;;;;4933471;28;46372;-76
2022/02/08 22:02:13;;;;;;;;;17.75;17.75;;;;;;;;4933590;28;45402;-77
2022/02/08 22:04:39;;;;;;;;;27.50;23.50;;;;;;;;4934541;28;45454;-77
2022/02/08 22:07:05;;;;;;;;;22.50;18.25;;;;;;;;4934242;28;45463;-75
2022/02/08 22:09:31;;;;;;;;;20.25;19.00;;;;;;;;4934662;28;46392;-75
2022/02/08 22:18:14;;;;;;;;;26.00;23.50;;;;;;;;5055395;28;45289;-77
2022/02/08 22:23:15;;;;;;;;;31.00;26.25;;;;;;;;5058904;28;45509;-77
2022/02/08 22:30:58;;;;;;;;;33.50;28.50;;;;;;;;5054476;28;45471;-76
2022/02/08 22:33:30;;;;;;;;;28.50;26.50;;;;;;;;5055151;28;45462;-76
2022/02/08 22:36:07;;;;;;;;;34.00;31.25;;;;;;;;5056918;27;45511;-76
2022/02/08 22:38:37;;;;;;;;;32.50;31.00;;;;;;;;5055489;28;45410;-76
2022/02/08 22:41:11;;;;;;;;;33.25;32.25;;;;;;;;5056203;27;46331;-75
2022/02/08 22:43:43;;;;;;;;;37.75;30.50;;;;;;;;5059154;27;45279;-75
2022/02/08 22:46:08;;;;;;;;;33.25;31.50;;;;;;;;5059042;28;45714;-77
2022/02/08 22:48:35;;;;;;;;;33.25;28.00;;;;;;;;5058281;28;45514;-75
2022/02/08 22:51:00;;;;;;;;;24.00;22.00;;;;;;;;5060323;28;46326;-76